sensor_id;sensor_type;location;lat;lon;timestamp;pressure;altitude;pressure_sealevel;temperature;humidity
73316;BME280;61545;53.726;-0.444;2022-09-28T00:04:36;995.6;;;8.2;82.6
73316;BME280;61545;53.726;-0.444;2022-09-28T00:09:36;995.6;;;8.2;82.6
73316;BME280;61545;53.726;-0.444;2022-09-28T00:14:36;995.6;;;8.1;82.7
73316;BME280;61545;53.726;-0.444;2022-09-28T00:19:36;995.6;;;8.1;82.6
73316;BME280;61545;53.726;-0.444;2022-09-28T00:24:36;995.6;;;8.2;82.6
73316;BME280;61545;53.726;-0.444;2022-09-28T00:29:36;995.6;;;8.2;82.5
73316;BME280;61545;53.726;-0.444;2022-09-28T00:34:37;995.6;;;8.2;82.3
73316;BME280;61545;53.726;-0.444;2022-09-28T00:39:36;995.6;;;8.1;82.3
73316;BME280;61545;53.726;-0.444;2022-09-28T00:44:39;995.6;;;8.1;82.2
73316;BME280;61545;53.726;-0.444;2022-09-28T00:49:38;995.6;;;8.0;82.2
73316;BME280;61545;53.726;-0.444;2022-09-28T00:54:36;995.5;;;8.3;82.3
73316;BME280;61545;53.726;-0.444;2022-09-28T00:59:36;995.5;;;8.0;82.4
73316;BME280;61545;53.726;-0.444;2022-09-28T01:04:36;995.5;;;8.2;82.4
73316;BME280;61545;53.726;-0.444;2022-09-28T01:09:37;995.5;;;8.2;82.5
73316;BME280;61545;53.726;-0.444;2022-09-28T01:14:36;995.5;;;8.0;82.7
73316;BME280;61545;53.726;-0.444;2022-09-28T01:19:46;995.4;;;8.0;82.9
73316;BME280;61545;53.726;-0.444;2022-09-28T01:24:39;995.4;;;7.9;83.2
73316;BME280;61545;53.726;-0.444;2022-09-28T01:29:42;995.4;;;8.0;83.5
73316;BME280;61545;53.726;-0.444;2022-09-28T01:34:38;995.4;;;8.0;83.6
73316;BME280;61545;53.726;-0.444;2022-09-28T01:39:38;995.4;;;7.9;83.7
73316;BME280;61545;53.726;-0.444;2022-09-28T01:44:38;995.4;;;7.6;84.1
73316;BME280;61545;53.726;-0.444;2022-09-28T01:49:38;995.3;;;7.7;84.4
73316;BME280;61545;53.726;-0.444;2022-09-28T01:54:37;995.2;;;7.9;84.7
73316;BME280;61545;53.726;-0.444;2022-09-28T01:59:37;995.3;;;7.8;84.9
73316;BME280;61545;53.726;-0.444;2022-09-28T02:04:39;995.2;;;7.7;85.1
73316;BME280;61545;53.726;-0.444;2022-09-28T02:09:37;995.3;;;7.8;85.3
73316;BME280;61545;53.726;-0.444;2022-09-28T02:14:37;995.2;;;7.8;85.6
73316;BME280;61545;53.726;-0.444;2022-09-28T02:19:36;995.2;;;7.8;85.9
73316;BME280;61545;53.726;-0.444;2022-09-28T02:24:38;995.2;;;7.7;86.2
73316;BME280;61545;53.726;-0.444;2022-09-28T02:29:36;995.2;;;7.8;86.5
73316;BME280;61545;53.726;-0.444;2022-09-28T02:34:36;995.1;;;7.8;86.6
73316;BME280;61545;53.726;-0.444;2022-09-28T02:39:36;995.1;;;7.8;86.7
73316;BME280;61545;53.726;-0.444;2022-09-28T02:44:47;995.2;;;7.8;86.8
73316;BME280;61545;53.726;-0.444;2022-09-28T02:49:38;995.3;;;7.8;86.9
73316;BME280;61545;53.726;-0.444;2022-09-28T02:54:46;995.3;;;7.7;87.1
73316;BME280;61545;53.726;-0.444;2022-09-28T02:59:43;995.3;;;7.5;87.2
73316;BME280;61545;53.726;-0.444;2022-09-28T03:04:39;995.3;;;7.7;87.5
73316;BME280;61545;53.726;-0.444;2022-09-28T03:09:43;995.3;;;7.6;87.9
73316;BME280;61545;53.726;-0.444;2022-09-28T03:14:36;995.3;;;7.8;88.1
73316;BME280;61545;53.726;-0.444;2022-09-28T03:19:36;995.3;;;7.7;88.4
73316;BME280;61545;53.726;-0.444;2022-09-28T03:24:36;995.3;;;7.7;88.6
73316;BME280;61545;53.726;-0.444;2022-09-28T03:29:36;995.3;;;7.7;88.6
73316;BME280;61545;53.726;-0.444;2022-09-28T03:34:36;995.3;;;7.7;88.8
73316;BME280;61545;53.726;-0.444;2022-09-28T03:39:36;995.4;;;7.8;89.0
73316;BME280;61545;53.726;-0.444;2022-09-28T03:44:36;995.3;;;7.7;89.2
73316;BME280;61545;53.726;-0.444;2022-09-28T03:49:36;995.4;;;7.8;89.4
73316;BME280;61545;53.726;-0.444;2022-09-28T03:54:36;995.4;;;7.8;89.6
73316;BME280;61545;53.726;-0.444;2022-09-28T03:59:36;995.4;;;7.7;89.7
73316;BME280;61545;53.726;-0.444;2022-09-28T04:04:36;995.4;;;7.7;89.9
73316;BME280;61545;53.726;-0.444;2022-09-28T04:09:36;995.4;;;7.8;90.3
73316;BME280;61545;53.726;-0.444;2022-09-28T04:14:36;995.4;;;7.6;90.5
73316;BME280;61545;53.726;-0.444;2022-09-28T04:19:36;995.4;;;7.8;90.8
73316;BME280;61545;53.726;-0.444;2022-09-28T04:24:36;995.4;;;7.8;91.1
73316;BME280;61545;53.726;-0.444;2022-09-28T04:29:36;995.5;;;7.8;91.3
73316;BME280;61545;53.726;-0.444;2022-09-28T04:34:36;995.5;;;7.8;91.3
73316;BME280;61545;53.726;-0.444;2022-09-28T04:39:36;995.6;;;7.8;91.4
73316;BME280;61545;53.726;-0.444;2022-09-28T04:44:36;995.6;;;7.7;91.5
73316;BME280;61545;53.726;-0.444;2022-09-28T04:49:36;995.6;;;7.6;91.6
73316;BME280;61545;53.726;-0.444;2022-09-28T04:54:36;995.7;;;7.6;92.0
73316;BME280;61545;53.726;-0.444;2022-09-28T04:59:36;995.7;;;7.6;92.4
73316;BME280;61545;53.726;-0.444;2022-09-28T05:04:36;995.7;;;7.7;92.7
73316;BME280;61545;53.726;-0.444;2022-09-28T05:09:36;995.7;;;7.7;93.0
73316;BME280;61545;53.726;-0.444;2022-09-28T05:14:36;995.6;;;7.7;93.4
73316;BME280;61545;53.726;-0.444;2022-09-28T05:19:36;995.6;;;7.6;93.7
73316;BME280;61545;53.726;-0.444;2022-09-28T05:24:36;995.7;;;7.6;94.0
73316;BME280;61545;53.726;-0.444;2022-09-28T05:29:36;995.6;;;7.7;94.2
73316;BME280;61545;53.726;-0.444;2022-09-28T05:34:36;995.6;;;7.6;94.4
73316;BME280;61545;53.726;-0.444;2022-09-28T05:39:36;995.6;;;7.7;94.5
73316;BME280;61545;53.726;-0.444;2022-09-28T05:44:36;995.6;;;7.6;94.7
73316;BME280;61545;53.726;-0.444;2022-09-28T05:49:36;995.7;;;7.5;94.9
73316;BME280;61545;53.726;-0.444;2022-09-28T05:54:36;995.6;;;7.6;95.1
73316;BME280;61545;53.726;-0.444;2022-09-28T05:59:36;995.7;;;7.6;95.3
73316;BME280;61545;53.726;-0.444;2022-09-28T06:04:36;995.6;;;7.5;95.5
73316;BME280;61545;53.726;-0.444;2022-09-28T06:09:36;995.6;;;7.5;95.5
73316;BME280;61545;53.726;-0.444;2022-09-28T06:14:36;995.7;;;7.5;95.7
73316;BME280;61545;53.726;-0.444;2022-09-28T06:19:36;995.7;;;7.5;95.8
73316;BME280;61545;53.726;-0.444;2022-09-28T06:24:36;995.8;;;7.7;96.0
73316;BME280;61545;53.726;-0.444;2022-09-28T06:29:36;995.9;;;8.0;96.1
73316;BME280;61545;53.726;-0.444;2022-09-28T06:34:36;995.9;;;8.0;96.1
73316;BME280;61545;53.726;-0.444;2022-09-28T06:39:36;996.0;;;8.0;96.2
73316;BME280;61545;53.726;-0.444;2022-09-28T06:44:36;996.1;;;7.9;96.0
73316;BME280;61545;53.726;-0.444;2022-09-28T06:49:36;996.1;;;7.8;95.7
73316;BME280;61545;53.726;-0.444;2022-09-28T06:54:36;996.2;;;7.8;95.5
73316;BME280;61545;53.726;-0.444;2022-09-28T06:59:36;996.2;;;8.0;95.4
73316;BME280;61545;53.726;-0.444;2022-09-28T07:04:38;996.3;;;8.0;95.5
73316;BME280;61545;53.726;-0.444;2022-09-28T07:09:36;996.2;;;8.0;95.5
73316;BME280;61545;53.726;-0.444;2022-09-28T07:14:36;996.3;;;8.3;95.5
73316;BME280;61545;53.726;-0.444;2022-09-28T07:19:36;996.3;;;8.8;95.7
73316;BME280;61545;53.726;-0.444;2022-09-28T07:24:36;996.4;;;10.8;95.9
73316;BME280;61545;53.726;-0.444;2022-09-28T07:29:36;996.4;;;11.7;93.8
73316;BME280;61545;53.726;-0.444;2022-09-28T07:34:36;996.4;;;12.4;90.9
73316;BME280;61545;53.726;-0.444;2022-09-28T07:39:36;996.5;;;12.9;88.1
73316;BME280;61545;53.726;-0.444;2022-09-28T07:44:36;996.5;;;13.2;85.2
73316;BME280;61545;53.726;-0.444;2022-09-28T07:49:36;996.5;;;13.7;83.3
73316;BME280;61545;53.726;-0.444;2022-09-28T07:54:36;996.6;;;14.3;81.2
73316;BME280;61545;53.726;-0.444;2022-09-28T07:59:36;996.7;;;12.2;79.5
73316;BME280;61545;53.726;-0.444;2022-09-28T08:04:36;996.7;;;11.2;79.8
73316;BME280;61545;53.726;-0.444;2022-09-28T08:09:36;996.7;;;11.0;80.1
73316;BME280;61545;53.726;-0.444;2022-09-28T08:14:36;996.7;;;10.5;80.2
73316;BME280;61545;53.726;-0.444;2022-09-28T08:19:36;996.7;;;10.7;80.8
73316;BME280;61545;53.726;-0.444;2022-09-28T08:24:36;996.7;;;11.0;80.7
73316;BME280;61545;53.726;-0.444;2022-09-28T08:29:36;996.8;;;10.7;80.9
73316;BME280;61545;53.726;-0.444;2022-09-28T08:34:37;996.8;;;10.5;81.3
73316;BME280;61545;53.726;-0.444;2022-09-28T08:39:36;996.8;;;11.9;81.8
73316;BME280;61545;53.726;-0.444;2022-09-28T08:44:40;996.8;;;13.2;81.3
73316;BME280;61545;53.726;-0.444;2022-09-28T08:49:38;996.8;;;14.7;80.1
73316;BME280;61545;53.726;-0.444;2022-09-28T08:54:39;996.8;;;14.7;78.4
73316;BME280;61545;53.726;-0.444;2022-09-28T08:59:42;996.9;;;15.5;77.2
73316;BME280;61545;53.726;-0.444;2022-09-28T09:04:36;996.9;;;15.8;75.6
73316;BME280;61545;53.726;-0.444;2022-09-28T09:09:43;996.9;;;13.7;75.0
73316;BME280;61545;53.726;-0.444;2022-09-28T09:15:44;996.9;;;14.5;74.7
73316;BME280;61545;53.726;-0.444;2022-09-28T09:19:40;996.9;;;14.2;74.2
73316;BME280;61545;53.726;-0.444;2022-09-28T09:24:40;996.9;;;14.0;74.2
73316;BME280;61545;53.726;-0.444;2022-09-28T09:29:45;997.0;;;13.0;74.0
73316;BME280;61545;53.726;-0.444;2022-09-28T09:34:42;997.0;;;12.9;73.9
73316;BME280;61545;53.726;-0.444;2022-09-28T09:39:44;997.0;;;12.5;74.2
73316;BME280;61545;53.726;-0.444;2022-09-28T09:44:43;997.0;;;12.6;74.2
73316;BME280;61545;53.726;-0.444;2022-09-28T09:49:37;997.0;;;12.4;74.5
73316;BME280;61545;53.726;-0.444;2022-09-28T09:54:38;997.1;;;12.1;74.4
73316;BME280;61545;53.726;-0.444;2022-09-28T09:59:38;997.1;;;12.0;74.9
73316;BME280;61545;53.726;-0.444;2022-09-28T10:04:39;997.0;;;12.0;75.0
73316;BME280;61545;53.726;-0.444;2022-09-28T10:09:38;997.0;;;13.0;75.0
73316;BME280;61545;53.726;-0.444;2022-09-28T10:14:36;997.0;;;13.2;74.8
73316;BME280;61545;53.726;-0.444;2022-09-28T10:19:36;997.0;;;13.8;74.3
73316;BME280;61545;53.726;-0.444;2022-09-28T10:24:38;997.0;;;14.2;73.6
73316;BME280;61545;53.726;-0.444;2022-09-28T10:29:42;997.0;;;14.6;72.6
73316;BME280;61545;53.726;-0.444;2022-09-28T10:34:36;997.0;;;13.9;71.8
73316;BME280;61545;53.726;-0.444;2022-09-28T10:39:39;996.9;;;13.9;71.4
73316;BME280;61545;53.726;-0.444;2022-09-28T10:44:47;996.9;;;14.3;71.0
73316;BME280;61545;53.726;-0.444;2022-09-28T10:49:38;996.8;;;15.5;69.9
73316;BME280;61545;53.726;-0.444;2022-09-28T10:54:36;996.8;;;14.0;69.1
73316;BME280;61545;53.726;-0.444;2022-09-28T10:59:38;996.7;;;14.7;68.8
73316;BME280;61545;53.726;-0.444;2022-09-28T11:04:39;996.7;;;14.9;67.5
73316;BME280;61545;53.726;-0.444;2022-09-28T11:09:39;996.7;;;14.7;66.4
73316;BME280;61545;53.726;-0.444;2022-09-28T11:14:37;996.7;;;14.6;66.6
73316;BME280;61545;53.726;-0.444;2022-09-28T11:19:36;996.7;;;13.7;66.7
73316;BME280;61545;53.726;-0.444;2022-09-28T11:24:36;996.8;;;13.5;67.0
73316;BME280;61545;53.726;-0.444;2022-09-28T11:29:37;996.8;;;13.2;67.0
73316;BME280;61545;53.726;-0.444;2022-09-28T11:34:41;996.8;;;13.2;66.8
73316;BME280;61545;53.726;-0.444;2022-09-28T11:39:39;996.8;;;13.7;66.5
73316;BME280;61545;53.726;-0.444;2022-09-28T11:44:38;996.8;;;13.5;65.8
73316;BME280;61545;53.726;-0.444;2022-09-28T11:49:39;996.7;;;13.5;65.7
73316;BME280;61545;53.726;-0.444;2022-09-28T11:54:39;996.8;;;13.3;65.1
73316;BME280;61545;53.726;-0.444;2022-09-28T11:59:38;996.7;;;12.9;65.5
73316;BME280;61545;53.726;-0.444;2022-09-28T12:04:39;996.7;;;12.9;66.0
73316;BME280;61545;53.726;-0.444;2022-09-28T12:09:39;996.6;;;13.0;65.9
73316;BME280;61545;53.726;-0.444;2022-09-28T12:14:37;996.5;;;13.2;65.6
73316;BME280;61545;53.726;-0.444;2022-09-28T12:19:37;996.5;;;13.4;65.4
73316;BME280;61545;53.726;-0.444;2022-09-28T12:24:37;996.5;;;13.6;65.0
73316;BME280;61545;53.726;-0.444;2022-09-28T12:29:38;996.4;;;14.0;63.8
73316;BME280;61545;53.726;-0.444;2022-09-28T12:34:36;996.4;;;14.4;62.4
73316;BME280;61545;53.726;-0.444;2022-09-28T12:39:44;996.3;;;15.2;61.0
73316;BME280;61545;53.726;-0.444;2022-09-28T12:44:45;996.3;;;15.0;60.2
73316;BME280;61545;53.726;-0.444;2022-09-28T12:49:42;996.3;;;14.2;60.0
73316;BME280;61545;53.726;-0.444;2022-09-28T12:54:48;996.3;;;13.8;60.2
73316;BME280;61545;53.726;-0.444;2022-09-28T12:59:38;996.3;;;13.6;60.3
73316;BME280;61545;53.726;-0.444;2022-09-28T13:04:44;996.3;;;13.9;60.5
73316;BME280;61545;53.726;-0.444;2022-09-28T13:09:41;996.3;;;13.9;60.7
73316;BME280;61545;53.726;-0.444;2022-09-28T13:14:54;996.2;;;13.8;60.6
73316;BME280;61545;53.726;-0.444;2022-09-28T13:19:38;996.2;;;14.2;59.9
73316;BME280;61545;53.726;-0.444;2022-09-28T13:24:37;996.2;;;14.1;59.7
73316;BME280;61545;53.726;-0.444;2022-09-28T13:29:36;996.2;;;14.1;60.0
73316;BME280;61545;53.726;-0.444;2022-09-28T13:34:36;996.2;;;14.2;60.2
73316;BME280;61545;53.726;-0.444;2022-09-28T13:39:45;996.2;;;13.9;60.0
73316;BME280;61545;53.726;-0.444;2022-09-28T13:44:53;996.1;;;14.4;59.2
73316;BME280;61545;53.726;-0.444;2022-09-28T13:49:42;996.2;;;14.6;58.7
73316;BME280;61545;53.726;-0.444;2022-09-28T13:54:49;996.1;;;13.9;58.8
73316;BME280;61545;53.726;-0.444;2022-09-28T13:59:44;996.1;;;13.9;59.1
73316;BME280;61545;53.726;-0.444;2022-09-28T14:04:53;996.1;;;14.2;59.3
73316;BME280;61545;53.726;-0.444;2022-09-28T14:09:40;996.0;;;14.4;59.1
73316;BME280;61545;53.726;-0.444;2022-09-28T14:14:46;996.1;;;14.8;57.4
73316;BME280;61545;53.726;-0.444;2022-09-28T14:19:36;996.1;;;14.6;57.1
73316;BME280;61545;53.726;-0.444;2022-09-28T14:24:43;996.1;;;14.2;57.3
73316;BME280;61545;53.726;-0.444;2022-09-28T14:29:37;996.0;;;13.7;57.7
73316;BME280;61545;53.726;-0.444;2022-09-28T14:34:37;996.0;;;13.4;57.9
73316;BME280;61545;53.726;-0.444;2022-09-28T14:39:36;996.0;;;13.4;58.3
73316;BME280;61545;53.726;-0.444;2022-09-28T14:45:42;995.9;;;13.5;58.7
73316;BME280;61545;53.726;-0.444;2022-09-28T14:49:45;995.9;;;13.4;58.9
73316;BME280;61545;53.726;-0.444;2022-09-28T14:54:41;995.9;;;13.9;58.5
73316;BME280;61545;53.726;-0.444;2022-09-28T14:59:41;995.8;;;14.4;57.3
73316;BME280;61545;53.726;-0.444;2022-09-28T15:04:39;995.8;;;14.5;55.9
73316;BME280;61545;53.726;-0.444;2022-09-28T15:09:37;995.7;;;14.5;54.9
73316;BME280;61545;53.726;-0.444;2022-09-28T15:14:42;995.8;;;14.2;54.9
73316;BME280;61545;53.726;-0.444;2022-09-28T15:19:37;995.7;;;14.1;54.5
73316;BME280;61545;53.726;-0.444;2022-09-28T15:24:36;995.8;;;13.9;54.4
73316;BME280;61545;53.726;-0.444;2022-09-28T15:29:37;995.7;;;14.2;53.9
73316;BME280;61545;53.726;-0.444;2022-09-28T15:34:36;995.7;;;13.9;53.5
73316;BME280;61545;53.726;-0.444;2022-09-28T15:39:36;995.5;;;13.9;53.9
73316;BME280;61545;53.726;-0.444;2022-09-28T15:44:36;995.5;;;13.9;53.1
73316;BME280;61545;53.726;-0.444;2022-09-28T15:49:39;995.5;;;13.7;52.9
73316;BME280;61545;53.726;-0.444;2022-09-28T15:54:40;995.4;;;13.8;53.2
73316;BME280;61545;53.726;-0.444;2022-09-28T15:59:37;995.5;;;13.9;53.9
73316;BME280;61545;53.726;-0.444;2022-09-28T16:04:39;995.5;;;13.7;54.4
73316;BME280;61545;53.726;-0.444;2022-09-28T16:09:54;995.4;;;13.5;55.0
73316;BME280;61545;53.726;-0.444;2022-09-28T16:14:37;995.4;;;13.3;55.7
73316;BME280;61545;53.726;-0.444;2022-09-28T16:19:37;995.4;;;13.2;56.9
73316;BME280;61545;53.726;-0.444;2022-09-28T16:24:37;995.4;;;13.0;57.7
73316;BME280;61545;53.726;-0.444;2022-09-28T16:29:38;995.4;;;12.9;58.4
73316;BME280;61545;53.726;-0.444;2022-09-28T16:34:36;995.5;;;12.7;59.2
73316;BME280;61545;53.726;-0.444;2022-09-28T16:39:36;995.5;;;12.7;59.8
73316;BME280;61545;53.726;-0.444;2022-09-28T16:44:37;995.4;;;12.5;60.3
73316;BME280;61545;53.726;-0.444;2022-09-28T16:49:38;995.4;;;12.4;61.0
73316;BME280;61545;53.726;-0.444;2022-09-28T16:54:37;995.5;;;12.4;61.6
73316;BME280;61545;53.726;-0.444;2022-09-28T16:59:37;995.4;;;12.3;62.5
73316;BME280;61545;53.726;-0.444;2022-09-28T17:04:37;995.4;;;12.3;63.0
73316;BME280;61545;53.726;-0.444;2022-09-28T17:09:36;995.4;;;12.2;63.6
73316;BME280;61545;53.726;-0.444;2022-09-28T17:14:37;995.5;;;12.1;64.4
73316;BME280;61545;53.726;-0.444;2022-09-28T17:19:37;995.5;;;11.9;65.3
73316;BME280;61545;53.726;-0.444;2022-09-28T17:24:37;995.4;;;12.0;66.0
73316;BME280;61545;53.726;-0.444;2022-09-28T17:29:37;995.5;;;11.8;66.8
73316;BME280;61545;53.726;-0.444;2022-09-28T17:34:37;995.5;;;11.7;67.8
73316;BME280;61545;53.726;-0.444;2022-09-28T17:39:37;995.5;;;11.6;69.0
73316;BME280;61545;53.726;-0.444;2022-09-28T17:44:37;995.5;;;11.7;69.7
73316;BME280;61545;53.726;-0.444;2022-09-28T17:49:37;995.4;;;11.5;70.5
73316;BME280;61545;53.726;-0.444;2022-09-28T17:54:37;995.4;;;11.4;71.2
73316;BME280;61545;53.726;-0.444;2022-09-28T17:59:37;995.4;;;11.4;71.6
73316;BME280;61545;53.726;-0.444;2022-09-28T18:04:37;995.4;;;11.4;71.9
73316;BME280;61545;53.726;-0.444;2022-09-28T18:09:37;995.4;;;11.4;72.3
73316;BME280;61545;53.726;-0.444;2022-09-28T18:14:37;995.3;;;11.4;72.5
73316;BME280;61545;53.726;-0.444;2022-09-28T18:19:37;995.3;;;11.3;72.9
73316;BME280;61545;53.726;-0.444;2022-09-28T18:24:37;995.3;;;11.3;73.2
73316;BME280;61545;53.726;-0.444;2022-09-28T18:29:37;995.3;;;11.2;73.3
73316;BME280;61545;53.726;-0.444;2022-09-28T18:34:37;995.3;;;11.3;73.4
73316;BME280;61545;53.726;-0.444;2022-09-28T18:39:37;995.2;;;11.2;73.4
73316;BME280;61545;53.726;-0.444;2022-09-28T18:44:37;995.2;;;11.2;73.5
73316;BME280;61545;53.726;-0.444;2022-09-28T18:49:37;995.1;;;11.2;73.5
73316;BME280;61545;53.726;-0.444;2022-09-28T18:54:37;995.1;;;11.2;73.4
73316;BME280;61545;53.726;-0.444;2022-09-28T18:59:37;995.1;;;11.2;73.5
73316;BME280;61545;53.726;-0.444;2022-09-28T19:04:37;995.1;;;11.2;73.4
73316;BME280;61545;53.726;-0.444;2022-09-28T19:09:37;995.1;;;11.1;73.3
73316;BME280;61545;53.726;-0.444;2022-09-28T19:14:37;995.1;;;11.2;73.3
73316;BME280;61545;53.726;-0.444;2022-09-28T19:19:37;995.1;;;11.2;73.3
73316;BME280;61545;53.726;-0.444;2022-09-28T19:24:37;995.1;;;11.0;73.4
73316;BME280;61545;53.726;-0.444;2022-09-28T19:29:37;995.1;;;11.0;73.8
73316;BME280;61545;53.726;-0.444;2022-09-28T19:34:37;995.1;;;10.8;74.3
73316;BME280;61545;53.726;-0.444;2022-09-28T19:39:37;995.0;;;10.8;74.9
73316;BME280;61545;53.726;-0.444;2022-09-28T19:44:37;995.0;;;10.8;75.5
73316;BME280;61545;53.726;-0.444;2022-09-28T19:49:38;995.0;;;10.7;76.5
73316;BME280;61545;53.726;-0.444;2022-09-28T19:54:37;995.0;;;10.3;77.6
73316;BME280;61545;53.726;-0.444;2022-09-28T19:59:37;995.0;;;10.2;78.9
73316;BME280;61545;53.726;-0.444;2022-09-28T20:04:37;995.0;;;10.4;80.0
73316;BME280;61545;53.726;-0.444;2022-09-28T20:09:37;995.0;;;10.0;80.8
73316;BME280;61545;53.726;-0.444;2022-09-28T20:14:37;995.1;;;10.0;82.0
73316;BME280;61545;53.726;-0.444;2022-09-28T20:19:37;995.0;;;9.9;83.2
73316;BME280;61545;53.726;-0.444;2022-09-28T20:24:37;995.0;;;9.8;84.0
73316;BME280;61545;53.726;-0.444;2022-09-28T20:29:37;995.1;;;10.0;84.8
73316;BME280;61545;53.726;-0.444;2022-09-28T20:34:37;995.1;;;9.9;85.6
73316;BME280;61545;53.726;-0.444;2022-09-28T20:39:37;995.1;;;9.9;86.0
73316;BME280;61545;53.726;-0.444;2022-09-28T20:44:37;995.0;;;10.0;86.8
73316;BME280;61545;53.726;-0.444;2022-09-28T20:49:37;995.0;;;10.0;87.6
73316;BME280;61545;53.726;-0.444;2022-09-28T20:54:37;995.0;;;10.2;87.9
73316;BME280;61545;53.726;-0.444;2022-09-28T20:59:37;994.9;;;10.0;88.2
73316;BME280;61545;53.726;-0.444;2022-09-28T21:04:37;994.9;;;10.1;88.5
73316;BME280;61545;53.726;-0.444;2022-09-28T21:09:37;994.9;;;10.1;88.4
73316;BME280;61545;53.726;-0.444;2022-09-28T21:14:37;995.0;;;10.4;88.2
73316;BME280;61545;53.726;-0.444;2022-09-28T21:19:37;994.9;;;10.5;88.4
73316;BME280;61545;53.726;-0.444;2022-09-28T21:24:37;994.9;;;10.2;88.6
73316;BME280;61545;53.726;-0.444;2022-09-28T21:29:37;994.9;;;10.1;88.9
73316;BME280;61545;53.726;-0.444;2022-09-28T21:34:37;994.9;;;10.0;89.2
73316;BME280;61545;53.726;-0.444;2022-09-28T21:39:37;994.9;;;10.2;89.4
73316;BME280;61545;53.726;-0.444;2022-09-28T21:44:37;994.9;;;10.0;90.0
73316;BME280;61545;53.726;-0.444;2022-09-28T21:49:37;994.9;;;10.0;90.7
73316;BME280;61545;53.726;-0.444;2022-09-28T21:54:37;995.0;;;10.0;91.2
73316;BME280;61545;53.726;-0.444;2022-09-28T21:59:37;995.0;;;10.3;91.8
73316;BME280;61545;53.726;-0.444;2022-09-28T22:04:37;994.9;;;10.2;92.1
73316;BME280;61545;53.726;-0.444;2022-09-28T22:09:37;995.0;;;10.2;92.5
73316;BME280;61545;53.726;-0.444;2022-09-28T22:14:37;994.9;;;10.3;93.0
73316;BME280;61545;53.726;-0.444;2022-09-28T22:19:37;994.9;;;10.2;93.2
73316;BME280;61545;53.726;-0.444;2022-09-28T22:24:37;994.9;;;10.1;93.4
73316;BME280;61545;53.726;-0.444;2022-09-28T22:29:37;994.9;;;10.2;93.9
73316;BME280;61545;53.726;-0.444;2022-09-28T22:34:37;994.9;;;9.9;93.8
73316;BME280;61545;53.726;-0.444;2022-09-28T22:39:37;994.9;;;9.7;93.9
73316;BME280;61545;53.726;-0.444;2022-09-28T22:44:37;994.9;;;9.8;94.1
73316;BME280;61545;53.726;-0.444;2022-09-28T22:49:37;994.9;;;9.9;94.7
73316;BME280;61545;53.726;-0.444;2022-09-28T22:54:37;994.9;;;10.0;95.4
73316;BME280;61545;53.726;-0.444;2022-09-28T22:59:37;994.9;;;9.9;95.7
73316;BME280;61545;53.726;-0.444;2022-09-28T23:04:37;994.9;;;10.0;96.1
73316;BME280;61545;53.726;-0.444;2022-09-28T23:09:37;994.8;;;9.9;96.6
73316;BME280;61545;53.726;-0.444;2022-09-28T23:14:37;994.9;;;9.9;97.0
73316;BME280;61545;53.726;-0.444;2022-09-28T23:19:37;994.8;;;9.9;97.4
73316;BME280;61545;53.726;-0.444;2022-09-28T23:24:37;994.9;;;10.0;97.6
73316;BME280;61545;53.726;-0.444;2022-09-28T23:29:37;994.9;;;10.1;97.9
73316;BME280;61545;53.726;-0.444;2022-09-28T23:34:37;994.8;;;9.9;98.1
73316;BME280;61545;53.726;-0.444;2022-09-28T23:39:37;994.8;;;9.8;98.2
73316;BME280;61545;53.726;-0.444;2022-09-28T23:44:37;994.8;;;9.9;98.3
73316;BME280;61545;53.726;-0.444;2022-09-28T23:49:37;994.9;;;9.9;98.5
73316;BME280;61545;53.726;-0.444;2022-09-28T23:54:37;994.9;;;10.2;98.7
73316;BME280;61545;53.726;-0.444;2022-09-28T23:59:37;994.9;;;10.0;99.1
